Time;durP1;ratioP1;P1;durP2;ratioP2;P2;SDS_P1;SDS_P2;PMS_P1;PMS_P2;Temp;Humidity;BMP_temperature;BMP_pressure;BME280_temperature;BME280_humidity;BME280_pressure;Samples;Min_cycle;Max_cycle;Signal;HPM_P1;HPM_P2
2022/09/11 00:01:41;;;;;;;17.23;15.53;;;;;;;;;;5053846;28;20448;-59
2022/09/11 00:04:10;;;;;;;15.73;13.80;;;;;;;;;;5053801;28;20511;-59
2022/09/11 00:06:37;;;;;;;19.40;14.67;;;;;;;;;;5053790;28;20455;-59
2022/09/11 00:09:05;;;;;;;17.47;15.67;;;;;;;;;;5053718;28;20452;-58
2022/09/11 00:11:34;;;;;;;15.50;14.00;;;;;;;;;;5053482;28;20459;-58
2022/09/11 00:14:01;;;;;;;13.80;12.40;;;;;;;;;;5053467;28;20622;-58
2022/09/11 00:16:29;;;;;;;13.47;12.07;;;;;;;;;;5053677;28;20456;-58
2022/09/11 00:18:58;;;;;;;11.27;10.10;;;;;;;;;;5053742;28;20455;-58
2022/09/11 00:21:25;;;;;;;11.80;10.10;;;;;;;;;;5053422;28;20448;-58
2022/09/11 00:23:52;;;;;;;10.50;9.47;;;;;;;;;;5053335;28;20486;-58
2022/09/11 00:26:19;;;;;;;9.27;8.47;;;;;;;;;;5053219;28;20454;-58
2022/09/11 00:28:49;;;;;;;8.90;7.50;;;;;;;;;;5053430;28;20546;-58
2022/09/11 00:31:17;;;;;;;10.33;8.73;;;;;;;;;;5053371;28;20548;-58
2022/09/11 00:33:44;;;;;;;8.13;7.30;;;;;;;;;;5053084;28;20464;-58
2022/09/11 00:36:12;;;;;;;7.97;7.30;;;;;;;;;;5053243;28;20456;-58
2022/09/11 00:38:40;;;;;;;7.17;6.57;;;;;;;;;;5053120;28;20910;-58
2022/09/11 00:41:08;;;;;;;8.10;7.20;;;;;;;;;;5053329;28;20535;-58
2022/09/11 00:43:56;;;;;;;6.33;5.80;;;;;;;;;;5053399;28;20979;-58
2022/09/11 00:46:25;;;;;;;7.43;6.83;;;;;;;;;;5053090;28;20535;-58
2022/09/11 00:48:53;;;;;;;6.00;5.60;;;;;;;;;;5052750;28;20995;-57
2022/09/11 00:51:22;;;;;;;6.80;6.20;;;;;;;;;;5052937;28;20448;-58
2022/09/11 00:53:51;;;;;;;5.77;5.20;;;;;;;;;;5053096;28;20473;-60
2022/09/11 00:56:19;;;;;;;6.00;5.50;;;;;;;;;;5053050;28;20543;-58
2022/09/11 00:58:47;;;;;;;6.57;6.07;;;;;;;;;;5052854;28;20451;-59
2022/09/11 01:01:15;;;;;;;7.67;7.03;;;;;;;;;;5053066;28;20471;-58
2022/09/11 01:03:43;;;;;;;6.60;6.10;;;;;;;;;;5052917;28;20476;-58
2022/09/11 01:06:10;;;;;;;6.70;5.60;;;;;;;;;;5053030;28;20452;-58
2022/09/11 01:08:37;;;;;;;6.77;6.13;;;;;;;;;;5052624;28;20463;-58
2022/09/11 01:11:12;;;;;;;6.60;6.03;;;;;;;;;;5052841;28;20448;-58
2022/09/11 01:13:44;;;;;;;7.30;6.70;;;;;;;;;;5052832;28;20854;-58
2022/09/11 01:16:18;;;;;;;7.10;6.47;;;;;;;;;;5052741;28;20449;-59
2022/09/11 01:18:49;;;;;;;6.77;6.27;;;;;;;;;;5052551;28;20448;-58
2022/09/11 01:21:24;;;;;;;7.80;6.53;;;;;;;;;;5052857;28;20894;-58
2022/09/11 01:24:00;;;;;;;7.27;6.60;;;;;;;;;;5052684;28;20578;-58
2022/09/11 01:26:48;;;;;;;6.80;6.20;;;;;;;;;;5052689;28;20458;-58
2022/09/11 01:29:20;;;;;;;6.57;5.93;;;;;;;;;;5047836;28;20530;-58
2022/09/11 01:31:52;;;;;;;9.43;7.10;;;;;;;;;;5052720;28;20471;-58
2022/09/11 01:34:21;;;;;;;8.07;7.20;;;;;;;;;;5052660;28;20810;-58
2022/09/11 01:36:52;;;;;;;7.53;6.70;;;;;;;;;;5052619;28;20444;-57
2022/09/11 01:39:20;;;;;;;7.90;7.03;;;;;;;;;;5052547;28;20448;-58
2022/09/11 01:41:49;;;;;;;8.60;6.70;;;;;;;;;;5053246;28;20526;-58
2022/09/11 01:44:20;;;;;;;7.83;6.80;;;;;;;;;;5052563;28;20511;-57
2022/09/11 01:46:48;;;;;;;7.20;6.63;;;;;;;;;;5052538;28;20479;-58
2022/09/11 01:49:17;;;;;;;7.23;6.70;;;;;;;;;;5052513;28;20480;-58
2022/09/11 01:51:44;;;;;;;7.80;7.00;;;;;;;;;;5052300;28;20448;-58
2022/09/11 01:54:14;;;;;;;7.30;6.70;;;;;;;;;;5052480;28;20455;-58
2022/09/11 01:56:44;;;;;;;7.83;7.03;;;;;;;;;;5052638;28;20448;-58
2022/09/11 01:59:12;;;;;;;7.70;7.00;;;;;;;;;;5052351;28;20463;-58
2022/09/11 02:01:42;;;;;;;6.20;5.70;;;;;;;;;;5052312;28;20454;-57
2022/09/11 02:04:11;;;;;;;10.30;7.37;;;;;;;;;;5052083;28;21056;-58
2022/09/11 02:06:41;;;;;;;7.63;7.10;;;;;;;;;;5052146;28;21019;-58
2022/09/11 02:09:10;;;;;;;8.30;7.20;;;;;;;;;;5052306;28;20804;-58
2022/09/11 02:11:40;;;;;;;7.37;6.73;;;;;;;;;;5052361;28;20847;-58
2022/09/11 02:14:09;;;;;;;7.40;6.70;;;;;;;;;;5052204;28;20464;-58
2022/09/11 02:16:41;;;;;;;9.47;8.20;;;;;;;;;;5052016;28;20448;-57
2022/09/11 02:19:12;;;;;;;7.80;7.10;;;;;;;;;;5052140;28;20505;-58
2022/09/11 02:21:39;;;;;;;8.50;7.87;;;;;;;;;;5055003;28;20455;-58
2022/09/11 02:24:07;;;;;;;8.50;7.70;;;;;;;;;;5055733;28;20522;-58
2022/09/11 02:26:37;;;;;;;9.00;8.10;;;;;;;;;;5055660;28;20449;-58
2022/09/11 02:29:04;;;;;;;8.20;7.40;;;;;;;;;;5055576;28;20452;-58
2022/09/11 02:31:31;;;;;;;9.10;8.30;;;;;;;;;;5055422;28;20474;-58
2022/09/11 02:33:58;;;;;;;9.27;8.47;;;;;;;;;;5055624;28;20460;-58
2022/09/11 02:36:39;;;;;;;10.50;9.47;;;;;;;;;;5055740;28;20551;-57
2022/09/11 02:39:12;;;;;;;11.77;10.57;;;;;;;;;;5055535;28;20531;-58
2022/09/11 02:41:45;;;;;;;12.40;11.20;;;;;;;;;;5055252;28;20542;-57
2022/09/11 02:44:19;;;;;;;11.83;10.73;;;;;;;;;;5055165;28;20987;-58
2022/09/11 02:46:55;;;;;;;15.93;11.73;;;;;;;;;;5055381;28;20462;-58
2022/09/11 02:49:25;;;;;;;15.20;12.53;;;;;;;;;;5055034;28;20987;-58
2022/09/11 02:51:59;;;;;;;16.20;14.00;;;;;;;;;;5055076;28;20457;-58
2022/09/11 02:54:30;;;;;;;14.20;12.80;;;;;;;;;;5055299;28;20449;-58
2022/09/11 02:57:01;;;;;;;16.90;13.90;;;;;;;;;;5055159;28;20448;-58
2022/09/11 02:59:32;;;;;;;15.43;13.53;;;;;;;;;;5055126;28;20539;-58
2022/09/11 03:02:00;;;;;;;14.93;13.43;;;;;;;;;;5055051;28;20456;-58
2022/09/11 03:04:30;;;;;;;14.90;13.43;;;;;;;;;;5054845;28;20484;-58
2022/09/11 03:06:59;;;;;;;17.40;15.70;;;;;;;;;;5055059;28;20510;-58
2022/09/11 03:09:26;;;;;;;15.80;14.20;;;;;;;;;;5054945;28;20459;-58
2022/09/11 03:11:53;;;;;;;20.13;14.77;;;;;;;;;;5054858;28;20488;-58
2022/09/11 03:14:20;;;;;;;16.80;15.20;;;;;;;;;;5054590;28;20969;-58
2022/09/11 03:16:48;;;;;;;16.77;14.97;;;;;;;;;;5054718;28;20444;-58
2022/09/11 03:19:15;;;;;;;15.83;14.17;;;;;;;;;;5054550;28;20949;-58
2022/09/11 03:21:42;;;;;;;17.70;15.80;;;;;;;;;;5054434;28;20994;-58
2022/09/11 03:24:11;;;;;;;17.97;16.10;;;;;;;;;;5054798;28;20563;-58
2022/09/11 03:26:39;;;;;;;16.57;14.90;;;;;;;;;;5054556;28;20812;-58
2022/09/11 03:29:07;;;;;;;21.13;16.73;;;;;;;;;;5054518;28;20810;-58
2022/09/11 03:31:34;;;;;;;20.03;17.53;;;;;;;;;;5054086;28;20456;-58
2022/09/11 03:34:01;;;;;;;18.20;16.40;;;;;;;;;;5054306;28;20800;-58
2022/09/11 03:36:28;;;;;;;17.23;15.50;;;;;;;;;;5054710;28;20448;-58
2022/09/11 03:38:55;;;;;;;15.83;13.63;;;;;;;;;;5054394;28;20498;-58
2022/09/11 03:41:25;;;;;;;20.10;14.37;;;;;;;;;;5054278;28;20452;-58
2022/09/11 03:43:52;;;;;;;20.27;16.33;;;;;;;;;;5054165;28;20452;-58
2022/09/11 03:46:18;;;;;;;16.10;14.40;;;;;;;;;;5054104;28;20547;-58
2022/09/11 03:48:45;;;;;;;18.00;16.00;;;;;;;;;;5053926;28;20479;-58
2022/09/11 03:51:13;;;;;;;17.13;15.43;;;;;;;;;;5054142;28;20455;-58
2022/09/11 03:53:40;;;;;;;18.70;16.80;;;;;;;;;;5054455;28;20456;-58
2022/09/11 03:56:07;;;;;;;16.40;14.70;;;;;;;;;;5053945;28;20448;-58
2022/09/11 03:58:36;;;;;;;19.97;16.37;;;;;;;;;;5053879;28;20448;-58
2022/09/11 04:01:08;;;;;;;18.37;15.40;;;;;;;;;;5053757;28;20792;-58
2022/09/11 04:03:35;;;;;;;17.83;15.93;;;;;;;;;;5053944;28;20887;-58
2022/09/11 04:06:03;;;;;;;18.97;14.60;;;;;;;;;;5053794;28;20476;-58
2022/09/11 04:08:32;;;;;;;20.07;17.97;;;;;;;;;;5053752;28;20476;-58
2022/09/11 04:10:59;;;;;;;16.37;14.50;;;;;;;;;;5053974;28;20460;-58
2022/09/11 04:13:27;;;;;;;17.47;15.60;;;;;;;;;;5053765;28;20452;-58
2022/09/11 04:15:58;;;;;;;18.90;16.40;;;;;;;;;;5053779;28;20539;-58
2022/09/11 04:18:25;;;;;;;19.70;17.67;;;;;;;;;;5053636;28;20448;-58
2022/09/11 04:20:52;;;;;;;17.60;15.70;;;;;;;;;;5053632;28;20864;-58
2022/09/11 04:23:19;;;;;;;17.87;15.97;;;;;;;;;;5053429;28;20527;-58
2022/09/11 04:25:46;;;;;;;19.60;14.37;;;;;;;;;;5053220;28;20520;-58
2022/09/11 04:28:13;;;;;;;20.50;16.90;;;;;;;;;;5053519;28;20533;-58
2022/09/11 04:30:41;;;;;;;19.80;17.23;;;;;;;;;;5053425;28;20801;-58
2022/09/11 04:33:09;;;;;;;21.63;16.20;;;;;;;;;;5053609;28;20527;-58
2022/09/11 04:35:38;;;;;;;20.50;16.53;;;;;;;;;;5053301;28;20445;-58
2022/09/11 04:38:05;;;;;;;17.63;15.70;;;;;;;;;;5053147;28;20452;-58
2022/09/11 04:40:32;;;;;;;19.17;15.80;;;;;;;;;;5053061;28;20475;-58
2022/09/11 04:42:59;;;;;;;18.73;15.00;;;;;;;;;;5052633;28;20451;-58
2022/09/11 04:45:26;;;;;;;17.20;15.20;;;;;;;;;;5053143;28;20483;-58
2022/09/11 04:47:53;;;;;;;18.07;13.60;;;;;;;;;;5053031;28;20476;-58
2022/09/11 04:50:22;;;;;;;14.23;12.83;;;;;;;;;;5053143;28;20452;-58
2022/09/11 04:52:49;;;;;;;15.23;13.63;;;;;;;;;;5052798;28;20964;-58
2022/09/11 04:55:16;;;;;;;14.83;13.17;;;;;;;;;;5053431;28;20535;-58
2022/09/11 04:57:43;;;;;;;14.60;12.30;;;;;;;;;;5053152;28;20480;-58
2022/09/11 05:00:10;;;;;;;15.83;13.43;;;;;;;;;;5052934;28;20484;-58
2022/09/11 05:02:38;;;;;;;14.47;12.97;;;;;;;;;;5052912;28;20452;-58
2022/09/11 05:05:05;;;;;;;25.33;13.80;;;;;;;;;;5052760;28;20508;-58
2022/09/11 05:07:34;;;;;;;15.50;13.03;;;;;;;;;;5052735;28;20488;-58
2022/09/11 05:10:02;;;;;;;20.40;14.63;;;;;;;;;;5053001;28;20449;-58
2022/09/11 05:12:30;;;;;;;15.00;13.50;;;;;;;;;;5052838;28;20470;-58
2022/09/11 05:14:57;;;;;;;17.10;13.17;;;;;;;;;;5052882;28;20459;-58
2022/09/11 05:17:24;;;;;;;16.20;13.97;;;;;;;;;;5052773;28;20864;-58
2022/09/11 05:19:51;;;;;;;16.83;14.50;;;;;;;;;;5052735;28;20451;-58
2022/09/11 05:22:18;;;;;;;16.47;14.60;;;;;;;;;;5052669;28;20476;-58
2022/09/11 05:24:47;;;;;;;19.40;13.03;;;;;;;;;;5052882;28;20475;-58
2022/09/11 05:27:13;;;;;;;21.50;16.40;;;;;;;;;;5052587;28;20456;-58
2022/09/11 05:29:40;;;;;;;18.70;14.90;;;;;;;;;;5052701;28;20970;-58
2022/09/11 05:32:07;;;;;;;16.37;14.03;;;;;;;;;;5052621;28;20459;-58
2022/09/11 05:34:34;;;;;;;18.97;15.10;;;;;;;;;;5052490;28;20449;-58
2022/09/11 05:37:02;;;;;;;18.97;14.67;;;;;;;;;;5052709;28;20459;-58
2022/09/11 05:39:28;;;;;;;21.97;15.70;;;;;;;;;;5052648;28;20499;-58
2022/09/11 05:41:57;;;;;;;19.13;14.40;;;;;;;;;;5052602;28;20535;-58
2022/09/11 05:44:24;;;;;;;20.43;14.77;;;;;;;;;;5052436;28;20803;-58
2022/09/11 05:46:51;;;;;;;21.27;15.77;;;;;;;;;;5052486;28;20819;-58
2022/09/11 05:49:18;;;;;;;17.40;15.07;;;;;;;;;;5052165;28;20464;-58
2022/09/11 05:51:45;;;;;;;18.00;14.87;;;;;;;;;;5052555;28;20494;-58
2022/09/11 05:54:12;;;;;;;17.27;14.40;;;;;;;;;;5053181;28;20546;-58
2022/09/11 05:56:40;;;;;;;24.73;16.37;;;;;;;;;;5056300;28;20448;-58
2022/09/11 05:59:13;;;;;;;17.20;15.03;;;;;;;;;;5056200;28;20452;-59
2022/09/11 06:01:41;;;;;;;19.67;15.80;;;;;;;;;;5056063;28;20932;-58
2022/09/11 06:04:09;;;;;;;22.17;16.43;;;;;;;;;;5056229;28;20448;-58
2022/09/11 06:06:36;;;;;;;21.80;16.17;;;;;;;;;;5056109;28;21036;-58
2022/09/11 06:09:03;;;;;;;20.10;15.10;;;;;;;;;;5055995;28;20537;-58
2022/09/11 06:11:30;;;;;;;19.10;15.47;;;;;;;;;;5055967;28;21023;-58
2022/09/11 06:13:57;;;;;;;17.57;14.80;;;;;;;;;;5055855;28;20456;-58
2022/09/11 06:16:25;;;;;;;17.97;14.43;;;;;;;;;;5055702;28;20448;-58
2022/09/11 06:18:53;;;;;;;19.87;15.30;;;;;;;;;;5055996;28;20484;-58
2022/09/11 06:21:21;;;;;;;16.70;14.90;;;;;;;;;;5055845;28;20479;-58
2022/09/11 06:23:48;;;;;;;19.30;15.30;;;;;;;;;;5055829;28;20448;-58
2022/09/11 06:26:17;;;;;;;20.53;15.20;;;;;;;;;;5055711;28;20507;-58
2022/09/11 06:28:44;;;;;;;18.30;15.17;;;;;;;;;;5055690;28;20483;-58
2022/09/11 06:31:12;;;;;;;16.10;13.87;;;;;;;;;;5056027;28;20539;-58
2022/09/11 06:33:41;;;;;;;17.97;15.40;;;;;;;;;;5055659;28;20460;-58
2022/09/11 06:36:10;;;;;;;17.23;14.60;;;;;;;;;;5055325;28;21009;-58
2022/09/11 06:38:37;;;;;;;16.60;14.30;;;;;;;;;;5055424;28;20448;-58
2022/09/11 06:41:05;;;;;;;19.37;15.33;;;;;;;;;;5055332;28;20483;-59
2022/09/11 06:43:33;;;;;;;17.27;14.07;;;;;;;;;;5055239;28;20450;-58
2022/09/11 06:46:03;;;;;;;17.80;13.40;;;;;;;;;;5055562;28;20483;-58
2022/09/11 06:48:30;;;;;;;18.60;14.80;;;;;;;;;;5055228;28;20508;-58
2022/09/11 06:51:02;;;;;;;17.33;14.43;;;;;;;;;;5055174;28;20451;-58
2022/09/11 06:53:29;;;;;;;15.10;13.43;;;;;;;;;;5055090;28;20896;-58
2022/09/11 06:55:59;;;;;;;15.70;13.73;;;;;;;;;;5054925;28;20459;-57
2022/09/11 06:58:26;;;;;;;18.93;15.07;;;;;;;;;;5055233;28;20452;-58
2022/09/11 07:00:53;;;;;;;25.03;15.67;;;;;;;;;;5054993;28;20458;-58
2022/09/11 07:03:19;;;;;;;18.50;15.73;;;;;;;;;;5055020;28;20883;-58
2022/09/11 07:05:47;;;;;;;17.03;13.43;;;;;;;;;;5054208;28;20504;-58
2022/09/11 07:08:15;;;;;;;20.50;13.97;;;;;;;;;;5054719;28;20480;-58
2022/09/11 07:10:42;;;;;;;19.30;15.10;;;;;;;;;;5055153;28;20445;-58
2022/09/11 07:13:09;;;;;;;17.87;14.60;;;;;;;;;;5054719;28;20456;-58
2022/09/11 07:15:36;;;;;;;22.57;15.37;;;;;;;;;;5054798;28;20466;-58
2022/09/11 07:18:04;;;;;;;22.63;17.33;;;;;;;;;;5054750;28;20799;-58
2022/09/11 07:20:31;;;;;;;23.10;17.53;;;;;;;;;;5054604;28;20953;-58
2022/09/11 07:22:58;;;;;;;17.40;14.47;;;;;;;;;;5054585;28;20448;-58
2022/09/11 07:25:26;;;;;;;19.93;15.40;;;;;;;;;;5054533;28;20558;-58
2022/09/11 07:27:53;;;;;;;23.00;16.67;;;;;;;;;;5054459;28;21042;-58
2022/09/11 07:30:20;;;;;;;19.37;15.80;;;;;;;;;;5054472;28;20484;-58
2022/09/11 07:32:48;;;;;;;20.60;16.30;;;;;;;;;;5054680;28;20961;-59
2022/09/11 07:35:20;;;;;;;16.37;14.67;;;;;;;;;;5054305;28;20452;-58
2022/09/11 07:37:47;;;;;;;17.23;14.63;;;;;;;;;;5054300;28;20443;-58
2022/09/11 07:40:14;;;;;;;17.77;14.47;;;;;;;;;;5054424;28;20456;-58
2022/09/11 07:42:43;;;;;;;16.53;13.27;;;;;;;;;;5054322;28;20451;-58
2022/09/11 07:45:10;;;;;;;19.03;15.53;;;;;;;;;;5054164;28;20444;-58
2022/09/11 07:47:38;;;;;;;18.77;14.60;;;;;;;;;;5054146;28;20476;-58
2022/09/11 07:50:05;;;;;;;16.83;14.00;;;;;;;;;;5053977;28;20458;-58
2022/09/11 07:52:33;;;;;;;15.63;13.50;;;;;;;;;;5054145;28;20535;-58
2022/09/11 07:55:02;;;;;;;15.30;13.70;;;;;;;;;;5054199;28;20448;-59
2022/09/11 07:57:30;;;;;;;20.50;15.30;;;;;;;;;;5054255;28;20448;-58
2022/09/11 07:59:59;;;;;;;20.60;16.00;;;;;;;;;;5053913;28;20444;-58
2022/09/11 08:02:26;;;;;;;31.80;22.83;;;;;;;;;;5054015;28;20799;-58
2022/09/11 08:04:53;;;;;;;21.50;15.43;;;;;;;;;;5053898;28;20446;-58
2022/09/11 08:07:21;;;;;;;16.33;12.97;;;;;;;;;;5053737;28;20491;-58
2022/09/11 08:09:49;;;;;;;16.07;13.33;;;;;;;;;;5053773;28;20460;-58
2022/09/11 08:12:16;;;;;;;17.63;15.53;;;;;;;;;;5053662;28;20811;-59
2022/09/11 08:14:43;;;;;;;17.80;15.90;;;;;;;;;;5053605;28;20544;-58
2022/09/11 08:17:11;;;;;;;16.20;12.80;;;;;;;;;;5053097;28;20506;-58
2022/09/11 08:19:39;;;;;;;15.53;13.67;;;;;;;;;;5053022;28;20550;-58
2022/09/11 08:22:06;;;;;;;17.27;15.30;;;;;;;;;;5053562;28;20448;-58
2022/09/11 08:24:33;;;;;;;14.60;12.63;;;;;;;;;;5053504;28;20523;-58
2022/09/11 08:27:00;;;;;;;14.70;12.30;;;;;;;;;;5053410;28;20487;-58
2022/09/11 08:29:27;;;;;;;14.03;12.47;;;;;;;;;;5053209;28;20490;-59
2022/09/11 08:31:54;;;;;;;14.57;11.57;;;;;;;;;;5053543;28;20543;-58
2022/09/11 08:34:22;;;;;;;13.43;12.03;;;;;;;;;;5053280;28;20555;-58
2022/09/11 08:36:51;;;;;;;13.70;12.30;;;;;;;;;;5053236;28;20448;-58
2022/09/11 08:39:18;;;;;;;12.03;10.80;;;;;;;;;;5053017;28;20530;-58
2022/09/11 08:41:47;;;;;;;12.23;10.97;;;;;;;;;;5053207;28;20448;-58
2022/09/11 08:44:17;;;;;;;14.70;11.93;;;;;;;;;;5052979;28;20444;-58
2022/09/11 08:46:45;;;;;;;14.23;11.27;;;;;;;;;;5053060;28;20490;-58
2022/09/11 08:49:18;;;;;;;12.70;9.97;;;;;;;;;;5052826;28;20472;-59
2022/09/11 08:51:48;;;;;;;11.43;10.20;;;;;;;;;;5053074;28;20793;-58
2022/09/11 08:54:22;;;;;;;11.83;10.50;;;;;;;;;;5053030;28;20484;-58
2022/09/11 08:56:50;;;;;;;10.07;9.07;;;;;;;;;;5052950;28;20452;-58
2022/09/11 08:59:25;;;;;;;11.33;9.70;;;;;;;;;;5052777;28;20967;-58
2022/09/11 09:01:55;;;;;;;11.47;10.37;;;;;;;;;;5052909;28;20502;-58
2022/09/11 09:04:30;;;;;;;11.70;9.97;;;;;;;;;;5052827;28;20614;-58
2022/09/11 09:07:03;;;;;;;12.30;10.73;;;;;;;;;;5052748;28;20537;-58
2022/09/11 09:09:36;;;;;;;10.60;9.50;;;;;;;;;;5053029;28;20539;-58
2022/09/11 09:12:06;;;;;;;21.07;10.80;;;;;;;;;;5052858;28;20556;-58
2022/09/11 09:14:51;;;;;;;11.17;9.87;;;;;;;;;;5053240;28;20807;-58
2022/09/11 09:17:20;;;;;;;11.57;9.53;;;;;;;;;;5052964;28;20454;-58
2022/09/11 09:19:51;;;;;;;11.23;9.60;;;;;;;;;;5052707;28;20445;-58
2022/09/11 09:22:22;;;;;;;12.53;11.23;;;;;;;;;;5052872;28;20544;-58
2022/09/11 09:24:50;;;;;;;10.97;9.77;;;;;;;;;;5052618;28;20454;-58
2022/09/11 09:27:19;;;;;;;10.40;9.27;;;;;;;;;;5052523;28;20522;-58
2022/09/11 09:29:47;;;;;;;9.37;8.33;;;;;;;;;;5054216;28;20547;-58
2022/09/11 09:32:17;;;;;;;10.47;8.70;;;;;;;;;;5056552;28;20463;-58
2022/09/11 09:34:45;;;;;;;9.33;8.37;;;;;;;;;;5056880;28;20461;-58
2022/09/11 09:37:16;;;;;;;9.43;8.50;;;;;;;;;;5056414;28;20970;-58
2022/09/11 09:39:45;;;;;;;8.30;7.50;;;;;;;;;;5056479;28;20458;-59
2022/09/11 09:42:30;;;;;;;8.60;7.70;;;;;;;;;;5056311;28;20542;-59
2022/09/11 09:45:06;;;;;;;8.77;7.87;;;;;;;;;;5025909;28;20483;-58
2022/09/11 09:47:33;;;;;;;8.63;7.83;;;;;;;;;;5056372;28;20487;-59
2022/09/11 09:50:00;;;;;;;8.23;7.43;;;;;;;;;;5056503;28;20865;-58
2022/09/11 09:52:31;;;;;;;7.80;7.10;;;;;;;;;;5056274;28;20440;-59
2022/09/11 09:55:01;;;;;;;7.47;6.73;;;;;;;;;;5056235;28;20458;-59
2022/09/11 09:57:30;;;;;;;8.90;8.10;;;;;;;;;;5056345;28;20554;-59
2022/09/11 10:00:00;;;;;;;8.03;7.20;;;;;;;;;;5056270;28;20470;-59
2022/09/11 10:02:37;;;;;;;6.60;6.07;;;;;;;;;;5056208;28;20538;-58
2022/09/11 10:05:07;;;;;;;7.77;7.07;;;;;;;;;;5056104;28;20447;-59
2022/09/11 10:07:34;;;;;;;7.17;6.47;;;;;;;;;;5055862;28;20574;-59
2022/09/11 10:10:03;;;;;;;9.33;6.77;;;;;;;;;;5056211;28;20990;-59
2022/09/11 10:12:31;;;;;;;7.63;6.10;;;;;;;;;;5056172;28;20448;-58
2022/09/11 10:14:59;;;;;;;6.50;6.00;;;;;;;;;;5056044;28;20448;-59
2022/09/11 10:17:32;;;;;;;6.07;5.63;;;;;;;;;;5055881;28;20444;-59
2022/09/11 10:20:13;;;;;;;6.53;6.03;;;;;;;;;;5055730;28;20552;-58
2022/09/11 10:22:40;;;;;;;6.70;6.20;;;;;;;;;;5055911;28;21027;-59
2022/09/11 10:25:13;;;;;;;7.73;6.47;;;;;;;;;;5055673;28;20531;-59
2022/09/11 10:27:41;;;;;;;7.50;6.80;;;;;;;;;;5055342;28;20479;-59
2022/09/11 10:30:23;;;;;;;7.13;5.50;;;;;;;;;;5055562;28;20546;-59
2022/09/11 10:32:50;;;;;;;7.10;6.40;;;;;;;;;;5055727;28;20781;-59
2022/09/11 10:35:17;;;;;;;6.40;5.87;;;;;;;;;;5055558;28;20540;-59
2022/09/11 10:37:44;;;;;;;6.57;5.97;;;;;;;;;;5055453;28;20555;-58
2022/09/11 10:40:20;;;;;;;5.53;5.13;;;;;;;;;;5055182;28;20445;-58
2022/09/11 10:42:49;;;;;;;6.50;5.90;;;;;;;;;;5054713;28;20456;-59
2022/09/11 10:45:17;;;;;;;6.60;6.00;;;;;;;;;;5055104;28;20927;-59
2022/09/11 10:47:45;;;;;;;10.03;6.87;;;;;;;;;;5055252;28;20531;-59
2022/09/11 10:50:20;;;;;;;6.30;5.70;;;;;;;;;;5055306;28;20456;-59
2022/09/11 10:52:49;;;;;;;6.93;5.00;;;;;;;;;;5055261;28;20448;-59
2022/09/11 10:55:16;;;;;;;6.30;5.77;;;;;;;;;;5055070;28;20448;-59
2022/09/11 10:57:46;;;;;;;6.17;5.57;;;;;;;;;;5055362;28;20444;-58
2022/09/11 11:00:14;;;;;;;5.23;4.83;;;;;;;;;;5055190;28;20484;-58
2022/09/11 11:02:43;;;;;;;5.80;5.40;;;;;;;;;;5054930;28;20544;-58
2022/09/11 11:05:20;;;;;;;6.03;5.43;;;;;;;;;;5055089;28;20627;-58
2022/09/11 11:07:55;;;;;;;6.47;5.87;;;;;;;;;;5054781;28;20507;-58
2022/09/11 11:10:31;;;;;;;5.90;5.40;;;;;;;;;;5055035;28;20539;-58
2022/09/11 11:13:06;;;;;;;6.00;5.50;;;;;;;;;;5055005;28;20854;-59
2022/09/11 11:15:39;;;;;;;5.80;5.30;;;;;;;;;;5054881;28;20502;-58
2022/09/11 11:18:18;;;;;;;7.37;6.77;;;;;;;;;;5054610;28;20470;-59
2022/09/11 11:20:51;;;;;;;5.40;5.00;;;;;;;;;;5054667;28;20526;-58
2022/09/11 11:23:39;;;;;;;6.47;5.87;;;;;;;;;;5054738;28;20453;-58
2022/09/11 11:26:18;;;;;;;5.03;4.63;;;;;;;;;;5049642;28;20448;-58
2022/09/11 11:28:54;;;;;;;9.00;6.40;;;;;;;;;;5054414;28;20451;-58
2022/09/11 11:31:32;;;;;;;5.17;4.67;;;;;;;;;;5054917;28;20452;-58
2022/09/11 11:34:09;;;;;;;4.40;4.10;;;;;;;;;;5054579;28;20483;-58
2022/09/11 11:36:40;;;;;;;4.60;4.30;;;;;;;;;;5054414;28;20513;-58
2022/09/11 11:39:13;;;;;;;5.47;4.97;;;;;;;;;;5054247;28;20531;-58
2022/09/11 11:41:43;;;;;;;5.70;4.87;;;;;;;;;;5054348;28;20445;-58
2022/09/11 11:44:14;;;;;;;7.13;6.43;;;;;;;;;;5054252;28;20448;-58
2022/09/11 11:46:44;;;;;;;8.73;5.23;;;;;;;;;;5054244;28;20479;-58
2022/09/11 11:49:12;;;;;;;5.70;5.10;;;;;;;;;;5054049;28;20473;-58
2022/09/11 11:51:44;;;;;;;5.30;4.80;;;;;;;;;;5053882;28;20540;-58
2022/09/11 11:54:16;;;;;;;4.50;4.20;;;;;;;;;;5054168;28;20453;-58
2022/09/11 11:56:45;;;;;;;4.10;3.70;;;;;;;;;;5054075;28;20457;-58
2022/09/11 11:59:16;;;;;;;3.93;3.50;;;;;;;;;;5054293;28;20437;-58
2022/09/11 12:01:47;;;;;;;3.77;3.47;;;;;;;;;;5053919;28;20865;-58
2022/09/11 12:04:20;;;;;;;3.97;3.67;;;;;;;;;;5053645;28;20463;-58
2022/09/11 12:06:47;;;;;;;4.10;3.70;;;;;;;;;;5053783;28;21284;-58
2022/09/11 12:09:16;;;;;;;4.20;3.90;;;;;;;;;;5053790;28;20860;-58
2022/09/11 12:11:44;;;;;;;3.67;3.33;;;;;;;;;;5053883;28;21052;-58
2022/09/11 12:14:25;;;;;;;4.50;4.10;;;;;;;;;;5053617;28;20452;-58
2022/09/11 12:16:52;;;;;;;3.47;3.17;;;;;;;;;;5054074;28;20546;-58
2022/09/11 12:19:19;;;;;;;4.63;4.17;;;;;;;;;;5053629;28;20523;-58
2022/09/11 12:22:06;;;;;;;4.23;3.87;;;;;;;;;;5053539;28;20542;-57
2022/09/11 12:24:54;;;;;;;4.50;4.10;;;;;;;;;;5053511;28;20484;-58
2022/09/11 12:27:48;;;;;;;4.00;3.80;;;;;;;;;;5053163;28;20472;-57
2022/09/11 12:30:23;;;;;;;5.37;4.87;;;;;;;;;;5017889;28;20456;-57
2022/09/11 12:32:50;;;;;;;5.17;4.67;;;;;;;;;;5053343;28;20444;-58
2022/09/11 12:35:21;;;;;;;4.47;4.17;;;;;;;;;;5053080;28;20471;-58
2022/09/11 12:37:52;;;;;;;3.57;3.37;;;;;;;;;;5053281;28;20453;-59
2022/09/11 12:40:23;;;;;;;6.27;4.60;;;;;;;;;;5053300;28;20539;-58
2022/09/11 12:42:57;;;;;;;5.20;4.80;;;;;;;;;;5053261;28;20449;-58
2022/09/11 12:45:34;;;;;;;5.00;4.60;;;;;;;;;;5053180;28;20447;-58
2022/09/11 12:48:06;;;;;;;4.17;3.87;;;;;;;;;;5052940;28;20494;-58
2022/09/11 12:50:33;;;;;;;6.50;5.90;;;;;;;;;;5053222;28;20452;-58
2022/09/11 12:53:02;;;;;;;5.90;5.43;;;;;;;;;;5053133;28;20451;-58
2022/09/11 12:55:32;;;;;;;5.53;5.03;;;;;;;;;;5052875;28;20493;-58
2022/09/11 12:58:02;;;;;;;5.53;5.03;;;;;;;;;;5052877;28;20452;-60
2022/09/11 13:00:33;;;;;;;5.00;4.60;;;;;;;;;;5052861;28;20812;-58
2022/09/11 13:03:02;;;;;;;6.00;5.50;;;;;;;;;;5052971;28;20448;-58
2022/09/11 13:05:33;;;;;;;6.03;5.60;;;;;;;;;;5052275;28;20448;-58
2022/09/11 13:08:01;;;;;;;5.50;5.00;;;;;;;;;;5052637;28;20480;-58
2022/09/11 13:10:34;;;;;;;6.00;5.37;;;;;;;;;;5052767;28;20456;-58
2022/09/11 13:13:02;;;;;;;5.80;5.30;;;;;;;;;;5052721;28;20928;-58
2022/09/11 13:15:40;;;;;;;5.87;5.13;;;;;;;;;;5052771;28;20455;-57
2022/09/11 13:18:24;;;;;;;6.00;5.30;;;;;;;;;;5052684;28;20459;-58
2022/09/11 13:20:59;;;;;;;7.27;5.47;;;;;;;;;;5052648;28;21010;-58
2022/09/11 13:23:26;;;;;;;7.80;5.30;;;;;;;;;;5052372;28;20444;-58
2022/09/11 13:25:54;;;;;;;5.90;4.67;;;;;;;;;;5052747;28;20449;-58
2022/09/11 13:28:21;;;;;;;6.80;5.00;;;;;;;;;;5052584;28;20484;-58
2022/09/11 13:30:52;;;;;;;4.70;4.30;;;;;;;;;;5052497;28;20454;-58
2022/09/11 13:33:22;;;;;;;5.63;4.50;;;;;;;;;;5052477;28;20459;-58
2022/09/11 13:35:52;;;;;;;5.53;4.93;;;;;;;;;;5052388;28;20444;-58
2022/09/11 13:38:22;;;;;;;5.50;5.00;;;;;;;;;;5052611;28;20970;-58
2022/09/11 13:40:49;;;;;;;5.13;4.73;;;;;;;;;;5052582;28;20974;-58
2022/09/11 13:43:19;;;;;;;6.17;5.57;;;;;;;;;;5052469;28;20535;-58
2022/09/11 13:45:47;;;;;;;5.83;5.33;;;;;;;;;;5052724;28;20444;-58
2022/09/11 13:48:20;;;;;;;4.30;4.00;;;;;;;;;;5052122;28;20492;-58
2022/09/11 13:50:47;;;;;;;5.13;4.63;;;;;;;;;;5052484;28;20463;-58
2022/09/11 13:53:15;;;;;;;5.27;4.70;;;;;;;;;;5052451;28;20471;-58
2022/09/11 13:55:46;;;;;;;5.07;4.67;;;;;;;;;;5052411;28;20793;-58
2022/09/11 13:58:21;;;;;;;4.30;3.97;;;;;;;;;;5052332;28;20543;-57
2022/09/11 14:00:49;;;;;;;4.93;4.53;;;;;;;;;;5052113;28;20973;-58
2022/09/11 14:03:19;;;;;;;5.03;4.63;;;;;;;;;;5052400;28;20476;-58
2022/09/11 14:05:52;;;;;;;4.27;3.93;;;;;;;;;;5052295;28;20453;-58
2022/09/11 14:08:22;;;;;;;4.40;4.00;;;;;;;;;;5052120;28;20486;-58
2022/09/11 14:10:50;;;;;;;4.70;4.40;;;;;;;;;;5052188;28;20824;-57
2022/09/11 14:13:20;;;;;;;6.20;3.83;;;;;;;;;;5052107;28;20808;-58
2022/09/11 14:15:50;;;;;;;3.57;3.37;;;;;;;;;;5053803;28;20445;-58
2022/09/11 14:18:24;;;;;;;4.00;3.70;;;;;;;;;;5055838;28;20452;-58
2022/09/11 14:20:52;;;;;;;3.90;3.60;;;;;;;;;;5055836;28;20506;-58
2022/09/11 14:23:23;;;;;;;3.97;3.63;;;;;;;;;;5055547;28;20506;-58
2022/09/11 14:26:04;;;;;;;3.63;3.17;;;;;;;;;;5055322;28;20444;-58
2022/09/11 14:28:36;;;;;;;3.40;3.20;;;;;;;;;;5055417;28;20484;-58
2022/09/11 14:31:06;;;;;;;3.60;3.30;;;;;;;;;;5055536;28;20820;-58
2022/09/11 14:33:33;;;;;;;3.77;3.47;;;;;;;;;;5055319;28;20445;-58
2022/09/11 14:36:03;;;;;;;3.60;3.40;;;;;;;;;;5055445;28;20758;-58
2022/09/11 14:38:31;;;;;;;3.50;3.30;;;;;;;;;;5055591;28;20458;-58
2022/09/11 14:41:00;;;;;;;3.20;2.97;;;;;;;;;;5055636;28;20452;-58
2022/09/11 14:43:31;;;;;;;3.27;3.07;;;;;;;;;;5055508;28;20539;-59
2022/09/11 14:45:58;;;;;;;2.77;2.67;;;;;;;;;;5055422;28;20448;-59